Lady Maria — 5VAG2 — position and weather

sailwx.info

Track history (hours):
 
Tides and Currents Weather Stations Pressure Air Temp Water Temp Dewpoint Dewpoint Depression Visibility Wind Speed Wind Dir Waves Ship Positions

Lady Maria

Last reported at 2018-Jul-04 23:49 UTC. Time now 2018-Jul-18 18:31 UTC.
Position N 43°09' E 028°17'.
Warning: this ship's position is 13 days out of date.

Length 89 m; draft 4 m.

Type: Cargo ship. MMSI: 671046000.

Date/timePositionNaut miles runAvg speedWind from/ knotsBaromVisibWave heightAir tempDewpointWater temp
2018-Jul-04 23:49N 43°09' E 028°17'3 8.2
2018-Jul-04 23:30N 43°07' E 028°18'4 8.1
2018-Jul-04 23:00N 43°03' E 028°20'4 8.3
2018-Jul-04 22:30N 42°59' E 028°23'4 8.4
2018-Jul-04 22:00N 42°55' E 028°25'4 8.4
2018-Jul-04 21:30N 42°51' E 028°26'17 7.9
2018-Jul-04 19:23N 42°36' E 028°34'6 7.3
2018-Jul-04 18:33N 42°30' E 028°37'1 7.3
2018-Jul-04 18:28N 42°30' E 028°37'3 7.2
2018-Jul-04 18:00N 42°26' E 028°39'6 1.3
2018-Jul-04 13:38N 42°21' E 028°42'1 5.3
2018-Jul-04 13:29N 42°20' E 028°42'3 5.2
2018-Jul-04 12:51N 42°17' E 028°44'4 5.3
2018-Jul-04 12:08N 42°13' E 028°45'1 5.3
2018-Jul-04 11:55N 42°12' E 028°46'2 5.3
2018-Jul-04 11:30N 42°10' E 028°47'3 5.3
2018-Jul-04 10:59N 42°08' E 028°49'3 5.3
2018-Jul-04 10:30N 42°05' E 028°50'4 6.6
2018-Jul-04 09:57N 42°02' E 028°51'1010.0
2018-Jul-04 08:58N 41°53' E 028°56'5 9.9
2018-Jul-04 08:30N 41°49' E 028°58'32 9.4
2018-Jul-04 05:04N 41°18' E 029°11'1 9.5
2018-Jul-04 05:00N 41°17' E 029°11'28 7.4
2018-Jul-04 01:10N 40°49' E 029°05'  
Track history (hours):
 
Tides and Currents Weather Stations Pressure Air Temp Water Temp Dewpoint Dewpoint Depression Visibility Wind Speed Wind Dir Waves Ship Positions

Lady Maria

Last reported at 2018-Jul-04 23:49 UTC. Time now 2018-Jul-18 18:31 UTC.
Position N 43°09' E 028°17'.
Warning: this ship's position is 13 days out of date.

Length 89 m; draft 4 m.

Type: Cargo ship. MMSI: 671046000.

Date/timePositionNaut miles runAvg speedWind from/ knotsBaromVisibWave heightAir tempDewpointWater temp
2018-Jul-04 23:49N 43°09' E 028°17'3 8.2
2018-Jul-04 23:30N 43°07' E 028°18'4 8.1
2018-Jul-04 23:00N 43°03' E 028°20'4 8.3
2018-Jul-04 22:30N 42°59' E 028°23'4 8.4
2018-Jul-04 22:00N 42°55' E 028°25'4 8.4
2018-Jul-04 21:30N 42°51' E 028°26'17 7.9
2018-Jul-04 19:23N 42°36' E 028°34'6 7.3
2018-Jul-04 18:33N 42°30' E 028°37'1 7.3
2018-Jul-04 18:28N 42°30' E 028°37'3 7.2
2018-Jul-04 18:00N 42°26' E 028°39'6 1.3
2018-Jul-04 13:38N 42°21' E 028°42'1 5.3
2018-Jul-04 13:29N 42°20' E 028°42'3 5.2
2018-Jul-04 12:51N 42°17' E 028°44'4 5.3
2018-Jul-04 12:08N 42°13' E 028°45'1 5.3
2018-Jul-04 11:55N 42°12' E 028°46'2 5.3
2018-Jul-04 11:30N 42°10' E 028°47'3 5.3
2018-Jul-04 10:59N 42°08' E 028°49'3 5.3
2018-Jul-04 10:30N 42°05' E 028°50'4 6.6
2018-Jul-04 09:57N 42°02' E 028°51'1010.0
2018-Jul-04 08:58N 41°53' E 028°56'5 9.9
2018-Jul-04 08:30N 41°49' E 028°58'32 9.4
2018-Jul-04 05:04N 41°18' E 029°11'1 9.5
2018-Jul-04 05:00N 41°17' E 029°11'28 7.4
2018-Jul-04 01:10N 40°49' E 029°05'  

Dump ship's entire track history